sensor_id;sensor_type;location;lat;lon;timestamp;pressure;altitude;pressure_sealevel;temperature;humidity
52983;BME280;48698;45.736;13.926;2023-03-14T00:03:56;97074.78;;;7.60;100.00
52983;BME280;48698;45.736;13.926;2023-03-14T00:08:58;96861.50;;;6.39;100.00
52983;BME280;48698;45.736;13.926;2023-03-14T00:14:01;96836.84;;;6.21;100.00
52983;BME280;48698;45.736;13.926;2023-03-14T00:19:03;96929.28;;;6.74;100.00
52983;BME280;48698;45.736;13.926;2023-03-14T00:24:07;96963.72;;;7.08;100.00
52983;BME280;48698;45.736;13.926;2023-03-14T00:29:10;96908.91;;;6.40;100.00
52983;BME280;48698;45.736;13.926;2023-03-14T00:34:12;96934.16;;;6.64;100.00
52983;BME280;48698;45.736;13.926;2023-03-14T00:39:15;96968.56;;;7.17;100.00
52983;BME280;48698;45.736;13.926;2023-03-14T00:44:36;96985.16;;;7.38;100.00
52983;BME280;48698;45.736;13.926;2023-03-14T00:49:39;97008.78;;;7.41;100.00
52983;BME280;48698;45.736;13.926;2023-03-14T00:54:42;96996.81;;;7.51;100.00
52983;BME280;48698;45.736;13.926;2023-03-14T00:59:44;96852.88;;;6.90;100.00
52983;BME280;48698;45.736;13.926;2023-03-14T01:04:48;96803.09;;;6.65;100.00
52983;BME280;48698;45.736;13.926;2023-03-14T01:09:52;96746.34;;;6.39;100.00
52983;BME280;48698;45.736;13.926;2023-03-14T01:14:59;96847.47;;;7.27;100.00
52983;BME280;48698;45.736;13.926;2023-03-14T01:20:02;96723.84;;;6.49;100.00
52983;BME280;48698;45.736;13.926;2023-03-14T01:25:12;96987.97;;;8.21;100.00
52983;BME280;48698;45.736;13.926;2023-03-14T01:30:15;96973.53;;;8.28;100.00
52983;BME280;48698;45.736;13.926;2023-03-14T01:35:28;96867.59;;;7.47;100.00
52983;BME280;48698;45.736;13.926;2023-03-14T01:40:31;96769.50;;;6.68;100.00
52983;BME280;48698;45.736;13.926;2023-03-14T01:46:12;96841.56;;;7.39;100.00
52983;BME280;48698;45.736;13.926;2023-03-14T01:51:27;96931.63;;;8.19;100.00
52983;BME280;48698;45.736;13.926;2023-03-14T01:56:31;96804.13;;;7.31;100.00
52983;BME280;48698;45.736;13.926;2023-03-14T02:01:35;96702.22;;;6.43;100.00
52983;BME280;48698;45.736;13.926;2023-03-14T02:06:50;96906.16;;;8.01;100.00
52983;BME280;48698;45.736;13.926;2023-03-14T02:11:54;96647.97;;;6.71;100.00
52983;BME280;48698;45.736;13.926;2023-03-14T02:16:57;96632.72;;;7.26;100.00
52983;BME280;48698;45.736;13.926;2023-03-14T02:22:12;96600.53;;;8.58;100.00
52983;BME280;48698;45.736;13.926;2023-03-14T02:27:17;96828.38;;;10.30;100.00
52983;BME280;48698;45.736;13.926;2023-03-14T02:32:22;96856.28;;;11.05;100.00
52983;BME280;48698;45.736;13.926;2023-03-14T02:37:56;96761.31;;;10.55;100.00
52983;BME280;48698;45.736;13.926;2023-03-14T02:43:02;96610.34;;;9.83;100.00
52983;BME280;48698;45.736;13.926;2023-03-14T02:53:34;96808.00;;;11.25;100.00
52983;BME280;48698;45.736;13.926;2023-03-14T02:58:37;96607.03;;;10.20;100.00
52983;BME280;48698;45.736;13.926;2023-03-14T03:03:40;96809.06;;;11.35;100.00
52983;BME280;48698;45.736;13.926;2023-03-14T03:08:43;96814.97;;;11.53;100.00
52983;BME280;48698;45.736;13.926;2023-03-14T03:13:45;96685.41;;;10.65;100.00
52983;BME280;48698;45.736;13.926;2023-03-14T03:18:48;96821.31;;;11.51;100.00
52983;BME280;48698;45.736;13.926;2023-03-14T03:23:51;96731.72;;;10.74;100.00
52983;BME280;48698;45.736;13.926;2023-03-14T03:28:53;96708.81;;;10.73;100.00
52983;BME280;48698;45.736;13.926;2023-03-14T03:33:57;96555.81;;;9.79;100.00
52983;BME280;48698;45.736;13.926;2023-03-14T03:38:59;96560.94;;;9.68;100.00
52983;BME280;48698;45.736;13.926;2023-03-14T03:44:02;96797.75;;;11.07;100.00
52983;BME280;48698;45.736;13.926;2023-03-14T03:49:06;96637.47;;;10.15;100.00
52983;BME280;48698;45.736;13.926;2023-03-14T03:54:09;96811.41;;;11.01;100.00
52983;BME280;48698;45.736;13.926;2023-03-14T03:59:11;96654.41;;;10.26;100.00
52983;BME280;48698;45.736;13.926;2023-03-14T04:04:14;96802.38;;;11.30;100.00
52983;BME280;48698;45.736;13.926;2023-03-14T04:09:17;96768.31;;;11.10;100.00
52983;BME280;48698;45.736;13.926;2023-03-14T04:14:20;96828.19;;;11.28;100.00
52983;BME280;48698;45.736;13.926;2023-03-14T04:19:24;96746.41;;;11.06;100.00
52983;BME280;48698;45.736;13.926;2023-03-14T04:24:26;96753.59;;;11.04;100.00
52983;BME280;48698;45.736;13.926;2023-03-14T04:29:29;96779.28;;;11.30;100.00
52983;BME280;48698;45.736;13.926;2023-03-14T04:34:31;96520.56;;;9.64;100.00
52983;BME280;48698;45.736;13.926;2023-03-14T04:39:44;96772.72;;;11.36;100.00
52983;BME280;48698;45.736;13.926;2023-03-14T04:44:47;96742.91;;;11.31;100.00
52983;BME280;48698;45.736;13.926;2023-03-14T04:49:51;96576.53;;;10.13;100.00
52983;BME280;48698;45.736;13.926;2023-03-14T04:54:54;96765.03;;;11.31;100.00
52983;BME280;48698;45.736;13.926;2023-03-14T04:59:56;96758.66;;;11.34;100.00
52983;BME280;48698;45.736;13.926;2023-03-14T05:04:59;96742.06;;;11.30;100.00
52983;BME280;48698;45.736;13.926;2023-03-14T05:10:02;96730.19;;;11.36;100.00
52983;BME280;48698;45.736;13.926;2023-03-14T05:15:06;96684.97;;;11.11;100.00
52983;BME280;48698;45.736;13.926;2023-03-14T05:20:09;96696.25;;;11.27;100.00
52983;BME280;48698;45.736;13.926;2023-03-14T05:25:12;96598.16;;;10.86;100.00
52983;BME280;48698;45.736;13.926;2023-03-14T05:30:15;96479.44;;;10.11;100.00
52983;BME280;48698;45.736;13.926;2023-03-14T05:35:18;96674.66;;;11.44;100.00
52983;BME280;48698;45.736;13.926;2023-03-14T05:40:20;96640.13;;;11.06;100.00
52983;BME280;48698;45.736;13.926;2023-03-14T05:45:23;96607.03;;;10.72;100.00
52983;BME280;48698;45.736;13.926;2023-03-14T05:50:25;96689.75;;;10.93;100.00
52983;BME280;48698;45.736;13.926;2023-03-14T05:55:28;96519.38;;;9.68;100.00
52983;BME280;48698;45.736;13.926;2023-03-14T06:00:41;96505.47;;;9.92;100.00
52983;BME280;48698;45.736;13.926;2023-03-14T06:05:43;96538.78;;;10.22;100.00
52983;BME280;48698;45.736;13.926;2023-03-14T06:10:47;96494.25;;;10.01;100.00
52983;BME280;48698;45.736;13.926;2023-03-14T06:15:51;96578.13;;;10.43;100.00
52983;BME280;48698;45.736;13.926;2023-03-14T06:21:01;96613.16;;;10.48;100.00
52983;BME280;48698;45.736;13.926;2023-03-14T06:26:05;96587.84;;;10.29;100.00
52983;BME280;48698;45.736;13.926;2023-03-14T06:31:08;96402.09;;;9.25;100.00
52983;BME280;48698;45.736;13.926;2023-03-14T06:36:12;96528.03;;;9.84;100.00
52983;BME280;48698;45.736;13.926;2023-03-14T06:41:16;96446.06;;;9.55;100.00
52983;BME280;48698;45.736;13.926;2023-03-14T06:46:19;96563.47;;;10.10;100.00
52983;BME280;48698;45.736;13.926;2023-03-14T06:51:22;96514.97;;;9.55;100.00
52983;BME280;48698;45.736;13.926;2023-03-14T06:56:26;96533.59;;;9.67;100.00
52983;BME280;48698;45.736;13.926;2023-03-14T07:01:30;96563.97;;;10.03;100.00
52983;BME280;48698;45.736;13.926;2023-03-14T07:06:36;96462.16;;;9.25;100.00
52983;BME280;48698;45.736;13.926;2023-03-14T07:11:39;96483.94;;;9.30;100.00
52983;BME280;48698;45.736;13.926;2023-03-14T07:16:43;96439.53;;;9.07;100.00
52983;BME280;48698;45.736;13.926;2023-03-14T07:21:46;96408.25;;;8.85;100.00
52983;BME280;48698;45.736;13.926;2023-03-14T07:27:00;96404.88;;;8.83;100.00
52983;BME280;48698;45.736;13.926;2023-03-14T07:32:03;96538.78;;;9.69;100.00
52983;BME280;48698;45.736;13.926;2023-03-14T07:37:07;96490.72;;;9.34;100.00
52983;BME280;48698;45.736;13.926;2023-03-14T07:42:12;96561.47;;;9.60;100.00
52983;BME280;48698;45.736;13.926;2023-03-14T07:47:15;96537.38;;;9.37;100.00
52983;BME280;48698;45.736;13.926;2023-03-14T07:52:19;96527.03;;;9.46;100.00
52983;BME280;48698;45.736;13.926;2023-03-14T07:57:24;96483.53;;;9.36;100.00
52983;BME280;48698;45.736;13.926;2023-03-14T08:02:27;96469.53;;;9.34;100.00
52983;BME280;48698;45.736;13.926;2023-03-14T08:07:32;96477.84;;;9.81;100.00
52983;BME280;48698;45.736;13.926;2023-03-14T08:12:35;96405.94;;;9.34;100.00
52983;BME280;48698;45.736;13.926;2023-03-14T08:17:38;96376.41;;;9.13;100.00
52983;BME280;48698;45.736;13.926;2023-03-14T08:22:42;96381.38;;;9.45;100.00
52983;BME280;48698;45.736;13.926;2023-03-14T08:27:45;96332.13;;;9.15;100.00
52983;BME280;48698;45.736;13.926;2023-03-14T08:32:49;96431.97;;;9.94;100.00
52983;BME280;48698;45.736;13.926;2023-03-14T08:37:53;96485.22;;;10.30;100.00
52983;BME280;48698;45.736;13.926;2023-03-14T08:42:56;96340.63;;;9.60;100.00
52983;BME280;48698;45.736;13.926;2023-03-14T08:48:03;96448.06;;;10.30;100.00
52983;BME280;48698;45.736;13.926;2023-03-14T08:53:07;96246.16;;;9.33;100.00
52983;BME280;48698;45.736;13.926;2023-03-14T08:58:10;96422.91;;;10.48;100.00
52983;BME280;48698;45.736;13.926;2023-03-14T09:03:14;96378.81;;;9.95;100.00
52983;BME280;48698;45.736;13.926;2023-03-14T09:08:18;96469.50;;;10.52;100.00
52983;BME280;48698;45.736;13.926;2023-03-14T09:13:21;96469.31;;;10.43;100.00
52983;BME280;48698;45.736;13.926;2023-03-14T09:18:25;96307.63;;;9.51;100.00
52983;BME280;48698;45.736;13.926;2023-03-14T09:23:29;96496.56;;;10.57;100.00
52983;BME280;48698;45.736;13.926;2023-03-14T09:28:32;96482.78;;;10.27;100.00
52983;BME280;48698;45.736;13.926;2023-03-14T09:33:36;96507.13;;;10.07;100.00
52983;BME280;48698;45.736;13.926;2023-03-14T09:38:40;96529.78;;;9.98;100.00
52983;BME280;48698;45.736;13.926;2023-03-14T09:43:45;96389.50;;;9.02;100.00
52983;BME280;48698;45.736;13.926;2023-03-14T09:48:49;96517.44;;;9.84;100.00
52983;BME280;48698;45.736;13.926;2023-03-14T09:53:53;96485.22;;;9.37;100.00
52983;BME280;48698;45.736;13.926;2023-03-14T09:58:59;96533.53;;;9.55;100.00
52983;BME280;48698;45.736;13.926;2023-03-14T10:04:10;96459.66;;;9.09;100.00
52983;BME280;48698;45.736;13.926;2023-03-14T10:09:20;96432.25;;;8.96;100.00
52983;BME280;48698;45.736;13.926;2023-03-14T10:14:34;96466.31;;;9.29;100.00
52983;BME280;48698;45.736;13.926;2023-03-14T10:19:59;96431.09;;;9.41;100.00
52983;BME280;48698;45.736;13.926;2023-03-14T10:25:05;96443.03;;;9.61;100.00
52983;BME280;48698;45.736;13.926;2023-03-14T10:30:45;96485.00;;;9.54;100.00
52983;BME280;48698;45.736;13.926;2023-03-14T10:35:54;96506.34;;;9.65;100.00
52983;BME280;48698;45.736;13.926;2023-03-14T10:40:59;96338.31;;;8.75;100.00
52983;BME280;48698;45.736;13.926;2023-03-14T10:46:09;96305.09;;;8.71;100.00
52983;BME280;48698;45.736;13.926;2023-03-14T10:51:26;96444.94;;;9.32;100.00
52983;BME280;48698;45.736;13.926;2023-03-14T10:56:36;96478.59;;;9.44;100.00
52983;BME280;48698;45.736;13.926;2023-03-14T11:01:47;96447.97;;;9.26;100.00
52983;BME280;48698;45.736;13.926;2023-03-14T11:07:50;96469.13;;;9.40;100.00
52983;BME280;48698;45.736;13.926;2023-03-14T11:12:51;96517.34;;;9.59;100.00
52983;BME280;48698;45.736;13.926;2023-03-14T11:23:36;96420.06;;;8.94;100.00
52983;BME280;48698;45.736;13.926;2023-03-14T11:28:58;96469.41;;;9.09;100.00
52983;BME280;48698;45.736;13.926;2023-03-14T11:39:41;96495.97;;;9.48;100.00
52983;BME280;48698;45.736;13.926;2023-03-14T11:44:49;96450.22;;;9.32;100.00
52983;BME280;48698;45.736;13.926;2023-03-14T11:55:33;96463.03;;;9.52;100.00
52983;BME280;48698;45.736;13.926;2023-03-14T12:00:38;96424.94;;;9.41;100.00
52983;BME280;48698;45.736;13.926;2023-03-14T12:22:33;96418.38;;;9.85;100.00
52983;BME280;48698;45.736;13.926;2023-03-14T12:27:45;96414.34;;;9.93;100.00
52983;BME280;48698;45.736;13.926;2023-03-14T12:38:24;96324.16;;;9.55;100.00
52983;BME280;48698;45.736;13.926;2023-03-14T12:43:33;96380.94;;;9.90;100.00
52983;BME280;48698;45.736;13.926;2023-03-14T12:48:39;96215.81;;;9.12;100.00
52983;BME280;48698;45.736;13.926;2023-03-14T12:59:28;96366.72;;;9.91;100.00
52983;BME280;48698;45.736;13.926;2023-03-14T13:04:44;96345.41;;;9.93;100.00
52983;BME280;48698;45.736;13.926;2023-03-14T13:10:04;96256.97;;;9.43;100.00
52983;BME280;48698;45.736;13.926;2023-03-14T13:15:19;96348.78;;;9.95;100.00
52983;BME280;48698;45.736;13.926;2023-03-14T13:25:33;96167.28;;;8.87;100.00
52983;BME280;48698;45.736;13.926;2023-03-14T13:30:41;96345.94;;;9.98;100.00
52983;BME280;48698;45.736;13.926;2023-03-14T13:35:57;96341.81;;;9.94;100.00
52983;BME280;48698;45.736;13.926;2023-03-14T13:41:06;96181.47;;;8.98;100.00
52983;BME280;48698;45.736;13.926;2023-03-14T13:46:15;96310.72;;;9.70;100.00
52983;BME280;48698;45.736;13.926;2023-03-14T13:51:20;96174.78;;;8.93;100.00
52983;BME280;48698;45.736;13.926;2023-03-14T13:56:28;96246.56;;;9.27;100.00
52983;BME280;48698;45.736;13.926;2023-03-14T14:01:34;96273.06;;;9.40;100.00
52983;BME280;48698;45.736;13.926;2023-03-14T14:06:44;96317.72;;;9.71;100.00
52983;BME280;48698;45.736;13.926;2023-03-14T14:12:06;96294.69;;;9.59;100.00
52983;BME280;48698;45.736;13.926;2023-03-14T14:17:21;96315.09;;;9.84;100.00
52983;BME280;48698;45.736;13.926;2023-03-14T14:22:28;96275.22;;;9.60;100.00
52983;BME280;48698;45.736;13.926;2023-03-14T14:27:46;96237.25;;;9.34;100.00
52983;BME280;48698;45.736;13.926;2023-03-14T14:32:51;96315.81;;;9.73;100.00
52983;BME280;48698;45.736;13.926;2023-03-14T14:37:54;96314.97;;;9.73;100.00
52983;BME280;48698;45.736;13.926;2023-03-14T14:43:11;96287.91;;;9.55;100.00
52983;BME280;48698;45.736;13.926;2023-03-14T14:48:23;96155.75;;;8.88;100.00
52983;BME280;48698;45.736;13.926;2023-03-14T14:53:40;96320.91;;;9.76;100.00
52983;BME280;48698;45.736;13.926;2023-03-14T14:58:45;96308.59;;;9.75;100.00
52983;BME280;48698;45.736;13.926;2023-03-14T15:03:51;96178.72;;;9.00;100.00
52983;BME280;48698;45.736;13.926;2023-03-14T15:08:55;96282.22;;;9.74;100.00
52983;BME280;48698;45.736;13.926;2023-03-14T15:13:59;96199.06;;;9.12;100.00
52983;BME280;48698;45.736;13.926;2023-03-14T15:19:10;96245.28;;;9.46;100.00
52983;BME280;48698;45.736;13.926;2023-03-14T15:24:26;96233.84;;;9.32;100.00
52983;BME280;48698;45.736;13.926;2023-03-14T15:29:29;96162.41;;;8.80;100.00
52983;BME280;48698;45.736;13.926;2023-03-14T15:34:33;96187.94;;;9.07;100.00
52983;BME280;48698;45.736;13.926;2023-03-14T15:39:43;96229.72;;;9.41;100.00
52983;BME280;48698;45.736;13.926;2023-03-14T15:45:02;96231.53;;;9.53;100.00
52983;BME280;48698;45.736;13.926;2023-03-14T15:50:09;96256.88;;;9.57;100.00
52983;BME280;48698;45.736;13.926;2023-03-14T15:55:13;96146.53;;;8.80;100.00
52983;BME280;48698;45.736;13.926;2023-03-14T16:00:18;96284.22;;;9.70;100.00
52983;BME280;48698;45.736;13.926;2023-03-14T16:05:26;96238.72;;;9.39;100.00
52983;BME280;48698;45.736;13.926;2023-03-14T16:10:30;96282.59;;;9.68;100.00
52983;BME280;48698;45.736;13.926;2023-03-14T16:15:55;96282.00;;;9.64;100.00
52983;BME280;48698;45.736;13.926;2023-03-14T16:21:04;96273.28;;;9.62;100.00
52983;BME280;48698;45.736;13.926;2023-03-14T16:26:11;96180.88;;;9.20;100.00
52983;BME280;48698;45.736;13.926;2023-03-14T16:31:18;96206.63;;;9.30;100.00
52983;BME280;48698;45.736;13.926;2023-03-14T16:36:23;96227.72;;;9.57;100.00
52983;BME280;48698;45.736;13.926;2023-03-14T16:41:27;96161.16;;;9.24;100.00
52983;BME280;48698;45.736;13.926;2023-03-14T16:46:33;96146.09;;;9.12;100.00
52983;BME280;48698;45.736;13.926;2023-03-14T16:51:48;96265.66;;;9.70;100.00
52983;BME280;48698;45.736;13.926;2023-03-14T16:56:52;96255.28;;;9.67;100.00
52983;BME280;48698;45.736;13.926;2023-03-14T17:01:57;96192.41;;;9.19;100.00
52983;BME280;48698;45.736;13.926;2023-03-14T17:07:00;96238.28;;;9.45;100.00
52983;BME280;48698;45.736;13.926;2023-03-14T17:12:15;96259.72;;;9.54;100.00
52983;BME280;48698;45.736;13.926;2023-03-14T17:17:19;96256.66;;;9.60;100.00
52983;BME280;48698;45.736;13.926;2023-03-14T17:22:22;96210.84;;;9.33;100.00
52983;BME280;48698;45.736;13.926;2023-03-14T17:27:32;96226.66;;;9.34;100.00
52983;BME280;48698;45.736;13.926;2023-03-14T17:32:38;96152.25;;;8.87;100.00
52983;BME280;48698;45.736;13.926;2023-03-14T17:37:41;96273.50;;;9.59;100.00
52983;BME280;48698;45.736;13.926;2023-03-14T17:42:45;96277.31;;;9.55;100.00
52983;BME280;48698;45.736;13.926;2023-03-14T17:47:48;96278.16;;;9.43;100.00
52983;BME280;48698;45.736;13.926;2023-03-14T17:52:53;96258.41;;;9.22;100.00
52983;BME280;48698;45.736;13.926;2023-03-14T17:57:56;96280.13;;;9.14;100.00
52983;BME280;48698;45.736;13.926;2023-03-14T18:03:00;96312.69;;;9.42;100.00
52983;BME280;48698;45.736;13.926;2023-03-14T18:08:04;96318.84;;;9.42;100.00
52983;BME280;48698;45.736;13.926;2023-03-14T18:13:07;96298.91;;;9.24;100.00
52983;BME280;48698;45.736;13.926;2023-03-14T18:18:10;96312.25;;;9.35;100.00
52983;BME280;48698;45.736;13.926;2023-03-14T18:23:14;96270.91;;;9.07;100.00
52983;BME280;48698;45.736;13.926;2023-03-14T18:28:18;96317.56;;;9.35;100.00
52983;BME280;48698;45.736;13.926;2023-03-14T18:33:21;96268.78;;;9.12;100.00
52983;BME280;48698;45.736;13.926;2023-03-14T18:38:25;96286.69;;;9.21;100.00
52983;BME280;48698;45.736;13.926;2023-03-14T18:43:28;96329.03;;;9.48;100.00
52983;BME280;48698;45.736;13.926;2023-03-14T18:48:32;96295.41;;;9.36;100.00
52983;BME280;48698;45.736;13.926;2023-03-14T18:53:35;96297.13;;;9.37;100.00
52983;BME280;48698;45.736;13.926;2023-03-14T18:58:39;96248.03;;;9.19;100.00
52983;BME280;48698;45.736;13.926;2023-03-14T19:03:43;96264.56;;;9.35;100.00
52983;BME280;48698;45.736;13.926;2023-03-14T19:08:48;96265.53;;;9.34;100.00
52983;BME280;48698;45.736;13.926;2023-03-14T19:13:52;96311.47;;;9.60;100.00
52983;BME280;48698;45.736;13.926;2023-03-14T19:18:56;96309.13;;;9.68;100.00
52983;BME280;48698;45.736;13.926;2023-03-14T19:24:01;96250.88;;;9.16;100.00
52983;BME280;48698;45.736;13.926;2023-03-14T19:29:06;96319.41;;;9.60;100.00
52983;BME280;48698;45.736;13.926;2023-03-14T19:34:10;96320.97;;;9.50;100.00
52983;BME280;48698;45.736;13.926;2023-03-14T19:39:14;96244.19;;;8.98;100.00
52983;BME280;48698;45.736;13.926;2023-03-14T19:44:17;96268.03;;;9.10;100.00
52983;BME280;48698;45.736;13.926;2023-03-14T19:49:21;96306.63;;;9.27;100.00
52983;BME280;48698;45.736;13.926;2023-03-14T19:54:24;96317.56;;;9.35;100.00
52983;BME280;48698;45.736;13.926;2023-03-14T19:59:39;96284.72;;;8.98;100.00
52983;BME280;48698;45.736;13.926;2023-03-14T20:04:42;96295.88;;;9.03;100.00
52983;BME280;48698;45.736;13.926;2023-03-14T20:09:46;96317.22;;;9.14;100.00
52983;BME280;48698;45.736;13.926;2023-03-14T20:15:00;96330.06;;;9.33;100.00
52983;BME280;48698;45.736;13.926;2023-03-14T20:20:05;96315.00;;;9.21;100.00
52983;BME280;48698;45.736;13.926;2023-03-14T20:25:12;96349.13;;;9.38;100.00
52983;BME280;48698;45.736;13.926;2023-03-14T20:30:18;96268.41;;;8.92;100.00
52983;BME280;48698;45.736;13.926;2023-03-14T20:35:23;96258.78;;;8.91;100.00
52983;BME280;48698;45.736;13.926;2023-03-14T20:40:27;96327.44;;;9.06;100.00
52983;BME280;48698;45.736;13.926;2023-03-14T20:45:31;96314.66;;;9.13;100.00
52983;BME280;48698;45.736;13.926;2023-03-14T20:50:34;96297.38;;;9.07;100.00
52983;BME280;48698;45.736;13.926;2023-03-14T20:55:38;96303.56;;;9.20;100.00
52983;BME280;48698;45.736;13.926;2023-03-14T21:00:45;96313.72;;;9.14;100.00
52983;BME280;48698;45.736;13.926;2023-03-14T21:05:50;96320.25;;;9.08;100.00
52983;BME280;48698;45.736;13.926;2023-03-14T21:11:04;96296.28;;;8.97;100.00
52983;BME280;48698;45.736;13.926;2023-03-14T21:16:08;96300.53;;;9.00;100.00
52983;BME280;48698;45.736;13.926;2023-03-14T21:21:12;96220.81;;;8.38;100.00
52983;BME280;48698;45.736;13.926;2023-03-14T21:26:16;96275.66;;;8.75;100.00
52983;BME280;48698;45.736;13.926;2023-03-14T21:31:19;96311.03;;;9.01;100.00
52983;BME280;48698;45.736;13.926;2023-03-14T21:36:22;96163.16;;;8.02;100.00
52983;BME280;48698;45.736;13.926;2023-03-14T21:41:26;96251.91;;;8.61;100.00
52983;BME280;48698;45.736;13.926;2023-03-14T21:46:38;96278.41;;;8.74;100.00
52983;BME280;48698;45.736;13.926;2023-03-14T21:51:42;96340.19;;;9.14;100.00
52983;BME280;48698;45.736;13.926;2023-03-14T21:56:49;96290.06;;;8.71;100.00
52983;BME280;48698;45.736;13.926;2023-03-14T22:01:52;96272.63;;;8.55;100.00
52983;BME280;48698;45.736;13.926;2023-03-14T22:06:58;96335.59;;;8.76;100.00
52983;BME280;48698;45.736;13.926;2023-03-14T22:12:01;96297.47;;;8.52;100.00
52983;BME280;48698;45.736;13.926;2023-03-14T22:17:05;96219.59;;;8.15;100.00
52983;BME280;48698;45.736;13.926;2023-03-14T22:22:08;96295.19;;;8.60;100.00
52983;BME280;48698;45.736;13.926;2023-03-14T22:27:12;96272.94;;;8.36;100.00
52983;BME280;48698;45.736;13.926;2023-03-14T22:32:15;96313.25;;;8.54;100.00
52983;BME280;48698;45.736;13.926;2023-03-14T22:37:28;96174.06;;;7.69;100.00
52983;BME280;48698;45.736;13.926;2023-03-14T22:42:42;96293.06;;;8.39;100.00
52983;BME280;48698;45.736;13.926;2023-03-14T22:47:45;96317.28;;;8.59;100.00
52983;BME280;48698;45.736;13.926;2023-03-14T22:52:49;96170.88;;;7.78;100.00
52983;BME280;48698;45.736;13.926;2023-03-14T22:57:55;96230.13;;;8.44;100.00
52983;BME280;48698;45.736;13.926;2023-03-14T23:02:59;96212.09;;;8.36;100.00
52983;BME280;48698;45.736;13.926;2023-03-14T23:08:03;96257.84;;;8.65;100.00
52983;BME280;48698;45.736;13.926;2023-03-14T23:13:06;96269.78;;;8.85;100.00
52983;BME280;48698;45.736;13.926;2023-03-14T23:18:11;96302.22;;;9.01;100.00
52983;BME280;48698;45.736;13.926;2023-03-14T23:23:15;96139.28;;;8.04;100.00
52983;BME280;48698;45.736;13.926;2023-03-14T23:28:19;96276.22;;;9.20;100.00
52983;BME280;48698;45.736;13.926;2023-03-14T23:33:27;96275.28;;;9.46;100.00
52983;BME280;48698;45.736;13.926;2023-03-14T23:38:32;96195.66;;;8.85;100.00
52983;BME280;48698;45.736;13.926;2023-03-14T23:43:36;96266.03;;;9.14;100.00
52983;BME280;48698;45.736;13.926;2023-03-14T23:48:40;96202.09;;;8.80;100.00
52983;BME280;48698;45.736;13.926;2023-03-14T23:53:43;96178.06;;;8.71;100.00
52983;BME280;48698;45.736;13.926;2023-03-14T23:58:46;96245.22;;;8.95;100.00
